Time;durP1;ratioP1;P1;durP2;ratioP2;P2;SDS_P1;SDS_P2;PMS_P1;PMS_P2;Temp;Humidity;BMP_temperature;BMP_pressure;BME280_temperature;BME280_humidity;BME280_pressure;Samples;Min_cycle;Max_cycle;Signal;HPM_P1;HPM_P2
2022/02/07 00:00:44;;;;;;;7.43;1.25;;;;;;;;;;5074356;28;20027;-73
2022/02/07 00:03:16;;;;;;;8.50;1.23;;;;;;;;;;5073665;28;20016;-70
2022/02/07 00:05:42;;;;;;;5.57;1.10;;;;;;;;;;5053838;28;20020;-70
2022/02/07 00:08:09;;;;;;;8.00;1.50;;;;;;;;;;5055565;28;20406;-70
2022/02/07 00:10:39;;;;;;;7.55;1.15;;;;;;;;;;5073756;28;20062;-73
2022/02/07 00:13:04;;;;;;;11.67;1.60;;;;;;;;;;5073156;28;20488;-70
2022/02/07 00:15:29;;;;;;;14.68;2.10;;;;;;;;;;5055896;28;20274;-72
2022/02/07 00:17:55;;;;;;;13.73;1.80;;;;;;;;;;5073923;28;20096;-70
2022/02/07 00:20:22;;;;;;;17.58;2.55;;;;;;;;;;5074188;28;20126;-70
2022/02/07 00:22:48;;;;;;;13.05;1.50;;;;;;;;;;5073611;28;20028;-73
2022/02/07 00:25:14;;;;;;;7.25;1.45;;;;;;;;;;5054866;28;20021;-70
2022/02/07 00:27:39;;;;;;;10.90;1.52;;;;;;;;;;5055441;28;20063;-70
2022/02/07 00:30:05;;;;;;;18.05;2.25;;;;;;;;;;5072900;28;20029;-71
2022/02/07 00:32:31;;;;;;;14.10;1.95;;;;;;;;;;5072851;28;20070;-69
2022/02/07 00:34:56;;;;;;;16.88;3.00;;;;;;;;;;5055160;28;20423;-71
2022/02/07 00:37:24;;;;;;;18.02;2.10;;;;;;;;;;5054331;28;20040;-70
2022/02/07 00:39:56;;;;;;;10.02;1.40;;;;;;;;;;5055180;28;20024;-69
2022/02/07 00:42:30;;;;;;;9.75;1.80;;;;;;;;;;5072570;28;20055;-72
2022/02/07 00:44:56;;;;;;;5.40;0.90;;;;;;;;;;5056427;28;20028;-70
2022/02/07 00:47:21;;;;;;;9.90;1.20;;;;;;;;;;5073109;28;20044;-72
2022/02/07 00:49:46;;;;;;;7.90;1.52;;;;;;;;;;5058000;28;20063;-70
2022/02/07 00:52:12;;;;;;;5.70;1.38;;;;;;;;;;5072637;28;20029;-72
2022/02/07 00:54:37;;;;;;;3.17;0.90;;;;;;;;;;5073114;28;20091;-70
2022/02/07 00:57:02;;;;;;;1.65;0.50;;;;;;;;;;5072884;28;20476;-72
2022/02/07 00:59:27;;;;;;;10.27;1.10;;;;;;;;;;5072950;28;20032;-69
2022/02/07 01:01:52;;;;;;;1.67;0.50;;;;;;;;;;5072281;28;20023;-73
2022/02/07 01:04:18;;;;;;;2.25;0.90;;;;;;;;;;5054591;28;20033;-69
2022/02/07 01:06:43;;;;;;;2.95;0.60;;;;;;;;;;5054624;28;20031;-73
2022/02/07 01:14:16;;;;;;;3.58;0.98;;;;;;;;;;5071886;28;20396;-73
2022/02/07 01:47:09;;;;;;;18.52;2.00;;;;;;;;;;5071846;28;20086;-69
2022/02/07 01:54:44;;;;;;;13.18;2.10;;;;;;;;;;5068781;28;20059;-69
2022/02/07 01:57:11;;;;;;;16.90;2.15;;;;;;;;;;5071504;28;20012;-72
2022/02/07 01:59:37;;;;;;;23.15;2.13;;;;;;;;;;5071686;28;20056;-71
2022/02/07 02:02:03;;;;;;;20.48;1.88;;;;;;;;;;5071431;28;20052;-69
2022/02/07 02:04:28;;;;;;;11.65;2.30;;;;;;;;;;5071378;28;20028;-71
2022/02/07 02:06:53;;;;;;;27.23;3.05;;;;;;;;;;5063930;28;20024;-69
2022/02/07 02:09:19;;;;;;;24.88;3.03;;;;;;;;;;5042792;28;20461;-70
2022/02/07 02:11:45;;;;;;;19.20;1.85;;;;;;;;;;5071309;28;20028;-69
2022/02/07 02:14:25;;;;;;;12.30;2.10;;;;;;;;;;5070623;28;20031;-69
2022/02/07 02:22:43;;;;;;;16.42;2.78;;;;;;;;;;5071144;28;20016;-74
2022/02/07 02:38:26;;;;;;;12.80;2.55;;;;;;;;;;5071678;28;20644;-69
2022/02/07 02:46:24;;;;;;;19.02;2.55;;;;;;;;;;5070581;28;20086;-69
2022/02/07 02:48:50;;;;;;;11.60;1.73;;;;;;;;;;5070673;28;20078;-71
2022/02/07 02:51:16;;;;;;;16.70;2.95;;;;;;;;;;5052796;28;20056;-72
2022/02/07 02:53:41;;;;;;;8.93;1.65;;;;;;;;;;5070900;28;20008;-72
2022/02/07 02:56:06;;;;;;;12.48;1.50;;;;;;;;;;5070880;28;20020;-68
2022/02/07 02:58:32;;;;;;;10.93;1.45;;;;;;;;;;5070609;28;20024;-70
2022/02/07 03:00:57;;;;;;;10.73;1.50;;;;;;;;;;5070335;28;20056;-74
2022/02/07 03:03:22;;;;;;;17.02;3.28;;;;;;;;;;5052779;28;20032;-70
2022/02/07 03:05:48;;;;;;;7.47;1.15;;;;;;;;;;5070999;28;20468;-69
2022/02/07 03:08:15;;;;;;;18.95;2.28;;;;;;;;;;5070621;28;20012;-72
2022/02/07 03:18:32;;;;;;;9.38;1.67;;;;;;;;;;5071108;28;20027;-68
2022/02/07 03:20:58;;;;;;;7.88;1.33;;;;;;;;;;5070506;28;20021;-71
2022/02/07 03:23:24;;;;;;;14.43;2.72;;;;;;;;;;5070315;28;20017;-70
2022/02/07 03:25:49;;;;;;;14.05;2.47;;;;;;;;;;5070283;28;20025;-68
2022/02/07 03:28:17;;;;;;;9.00;1.40;;;;;;;;;;5070773;28;20104;-70
2022/02/07 03:30:42;;;;;;;13.80;2.42;;;;;;;;;;5062616;28;20528;-69
2022/02/07 03:33:07;;;;;;;17.52;3.47;;;;;;;;;;5052371;28;20147;-68
2022/02/07 03:35:33;;;;;;;17.75;1.75;;;;;;;;;;5070037;28;20025;-70
2022/02/07 03:37:58;;;;;;;10.95;2.03;;;;;;;;;;5067958;28;20040;-70
2022/02/07 03:40:24;;;;;;;25.25;2.75;;;;;;;;;;5069689;28;20096;-72
2022/02/07 03:42:49;;;;;;;10.73;1.70;;;;;;;;;;5068693;28;20078;-72
2022/02/07 03:45:14;;;;;;;11.30;1.70;;;;;;;;;;5069788;28;20419;-70
2022/02/07 03:47:40;;;;;;;15.40;1.75;;;;;;;;;;5060426;28;20025;-70
2022/02/07 03:50:05;;;;;;;15.75;2.03;;;;;;;;;;5069620;28;20028;-70
2022/02/07 03:52:31;;;;;;;21.30;1.88;;;;;;;;;;5068865;28;20078;-70
2022/02/07 03:54:56;;;;;;;22.15;2.00;;;;;;;;;;5069433;28;20013;-70
2022/02/07 03:57:21;;;;;;;21.83;3.60;;;;;;;;;;5069039;28;20024;-70
2022/02/07 03:59:46;;;;;;;21.00;3.15;;;;;;;;;;5068087;28;20282;-70
2022/02/07 04:02:12;;;;;;;15.07;1.55;;;;;;;;;;5050971;28;20389;-70
2022/02/07 04:04:38;;;;;;;19.80;1.67;;;;;;;;;;5068782;28;20438;-70
2022/02/07 04:07:06;;;;;;;8.73;1.48;;;;;;;;;;5068497;28;20035;-71
2022/02/07 04:09:36;;;;;;;37.63;3.95;;;;;;;;;;5069144;28;20032;-70
2022/02/07 04:12:08;;;;;;;11.05;1.80;;;;;;;;;;5072566;28;20025;-70
2022/02/07 04:14:33;;;;;;;28.77;2.72;;;;;;;;;;5072950;28;20012;-71
2022/02/07 04:16:59;;;;;;;8.68;1.65;;;;;;;;;;5073196;28;20035;-70
2022/02/07 04:19:31;;;;;;;13.68;1.42;;;;;;;;;;5073292;28;20499;-70
2022/02/07 04:21:56;;;;;;;15.00;2.47;;;;;;;;;;5069308;28;20020;-70
2022/02/07 04:24:22;;;;;;;28.05;3.40;;;;;;;;;;5075755;28;20082;-70
2022/02/07 04:26:47;;;;;;;14.02;2.55;;;;;;;;;;5079380;28;20012;-70
2022/02/07 04:29:12;;;;;;;17.33;2.17;;;;;;;;;;5071700;28;20107;-70
2022/02/07 04:31:37;;;;;;;10.00;2.00;;;;;;;;;;5072032;28;20017;-70
2022/02/07 04:34:02;;;;;;;15.17;2.23;;;;;;;;;;5071969;28;20086;-70
2022/02/07 04:36:28;;;;;;;17.60;2.35;;;;;;;;;;5073430;28;20275;-70
2022/02/07 04:38:53;;;;;;;16.83;2.35;;;;;;;;;;5072130;28;20035;-70
2022/02/07 04:41:18;;;;;;;23.02;2.33;;;;;;;;;;5054492;28;20013;-70
2022/02/07 04:43:52;;;;;;;17.33;2.53;;;;;;;;;;5071674;28;20028;-70
2022/02/07 04:46:39;;;;;;;16.25;2.15;;;;;;;;;;5072303;28;20115;-70
2022/02/07 04:51:53;;;;;;;18.48;3.45;;;;;;;;;;5071565;28;20108;-70
2022/02/07 04:55:10;;;;;;;11.10;1.70;;;;;;;;;;5072237;28;20074;-70
2022/02/07 04:59:58;;;;;;;19.55;1.92;;;;;;;;;;5071797;28;20032;-70
2022/02/07 05:05:21;;;;;;;20.35;3.65;;;;;;;;;;5072163;28;20056;-70
2022/02/07 05:15:44;;;;;;;28.77;3.35;;;;;;;;;;5071670;28;20031;-71
2022/02/07 05:18:09;;;;;;;11.25;1.67;;;;;;;;;;5071938;28;20031;-69
2022/02/07 05:20:35;;;;;;;12.07;2.00;;;;;;;;;;5053781;28;20025;-70
2022/02/07 05:23:00;;;;;;;22.27;2.25;;;;;;;;;;5070611;28;20808;-70
2022/02/07 05:25:25;;;;;;;19.40;1.98;;;;;;;;;;5071627;28;20031;-70
2022/02/07 05:27:50;;;;;;;19.27;3.22;;;;;;;;;;5070790;28;20063;-70
2022/02/07 05:30:15;;;;;;;17.88;2.35;;;;;;;;;;5071721;28;20031;-70
2022/02/07 05:32:41;;;;;;;23.70;3.45;;;;;;;;;;5070942;28;20043;-69
2022/02/07 05:35:06;;;;;;;21.92;3.65;;;;;;;;;;5070887;28;20115;-70
2022/02/07 05:37:33;;;;;;;8.43;1.73;;;;;;;;;;5071559;28;20039;-69
2022/02/07 05:40:08;;;;;;;12.70;2.05;;;;;;;;;;5071107;28;20031;-69
2022/02/07 05:42:38;;;;;;;18.08;2.38;;;;;;;;;;5070698;28;20021;-70
2022/02/07 05:45:06;;;;;;;22.77;2.45;;;;;;;;;;5071156;28;20021;-70
2022/02/07 05:47:31;;;;;;;23.27;3.55;;;;;;;;;;5071287;28;20112;-70
2022/02/07 05:49:57;;;;;;;21.23;3.60;;;;;;;;;;5052842;28;20128;-69
2022/02/07 05:52:23;;;;;;;19.35;2.28;;;;;;;;;;5070513;28;20055;-70
2022/02/07 05:54:48;;;;;;;22.67;3.42;;;;;;;;;;5070984;28;20044;-70
2022/02/07 05:57:13;;;;;;;23.23;3.90;;;;;;;;;;5070897;28;20469;-70
2022/02/07 05:59:39;;;;;;;26.77;3.57;;;;;;;;;;5070771;28;20074;-71
2022/02/07 06:02:04;;;;;;;28.80;3.50;;;;;;;;;;5070560;28;20813;-70
2022/02/07 06:04:30;;;;;;;21.92;3.92;;;;;;;;;;5070838;28;20032;-69
2022/02/07 06:06:56;;;;;;;25.25;3.10;;;;;;;;;;5070769;28;20025;-69
2022/02/07 06:09:28;;;;;;;23.73;3.75;;;;;;;;;;5066519;28;20025;-69
2022/02/07 06:11:55;;;;;;;19.67;3.70;;;;;;;;;;5068171;28;20797;-71
2022/02/07 06:14:20;;;;;;;25.83;4.68;;;;;;;;;;5068721;28;20027;-71
2022/02/07 06:16:46;;;;;;;23.48;3.70;;;;;;;;;;5066944;28;20020;-72
2022/02/07 06:19:11;;;;;;;21.98;4.47;;;;;;;;;;5068048;28;20028;-70
2022/02/07 06:21:37;;;;;;;24.40;3.17;;;;;;;;;;5067506;28;20145;-69
2022/02/07 06:24:03;;;;;;;19.73;3.03;;;;;;;;;;5068416;28;20024;-71
2022/02/07 06:26:29;;;;;;;26.70;3.20;;;;;;;;;;5067962;28;20357;-71
2022/02/07 06:28:55;;;;;;;31.73;4.47;;;;;;;;;;5065968;28;20028;-70
2022/02/07 06:31:20;;;;;;;26.63;4.13;;;;;;;;;;5066467;28;20280;-71
2022/02/07 06:33:45;;;;;;;27.77;3.22;;;;;;;;;;5066374;28;20021;-71
2022/02/07 06:36:11;;;;;;;20.58;3.15;;;;;;;;;;5066252;28;20031;-70
2022/02/07 06:38:36;;;;;;;31.38;3.33;;;;;;;;;;5066817;28;20020;-71
2022/02/07 06:41:01;;;;;;;26.02;3.60;;;;;;;;;;5065287;28;20088;-71
2022/02/07 06:43:26;;;;;;;24.63;2.93;;;;;;;;;;5070361;28;20396;-70
2022/02/07 06:45:52;;;;;;;20.87;2.50;;;;;;;;;;5067126;28;20408;-69
2022/02/07 06:48:17;;;;;;;25.30;5.22;;;;;;;;;;5064588;28;20287;-70
2022/02/07 06:50:42;;;;;;;25.90;3.95;;;;;;;;;;5064386;28;20032;-71
2022/02/07 06:53:08;;;;;;;14.43;2.78;;;;;;;;;;5069237;28;20032;-69
2022/02/07 06:55:33;;;;;;;30.75;3.17;;;;;;;;;;5070652;28;20290;-71
2022/02/07 06:57:59;;;;;;;36.70;5.38;;;;;;;;;;5070237;28;20036;-68
2022/02/07 07:00:25;;;;;;;15.38;2.90;;;;;;;;;;5070395;28;20028;-71
2022/02/07 07:02:50;;;;;;;19.42;2.55;;;;;;;;;;5070389;28;20025;-69
2022/02/07 07:05:21;;;;;;;27.40;3.33;;;;;;;;;;5070576;28;20058;-68
2022/02/07 07:07:47;;;;;;;18.63;2.97;;;;;;;;;;5070505;28;20040;-69
2022/02/07 07:10:12;;;;;;;21.67;3.63;;;;;;;;;;5070218;28;20097;-70
2022/02/07 07:12:38;;;;;;;22.05;2.95;;;;;;;;;;5070055;28;20025;-68
2022/02/07 07:15:11;;;;;;;23.38;3.88;;;;;;;;;;5070195;28;20020;-69
2022/02/07 07:17:36;;;;;;;16.65;1.83;;;;;;;;;;5070373;28;20043;-70
2022/02/07 07:20:05;;;;;;;30.83;2.60;;;;;;;;;;5069083;28;20016;-69
2022/02/07 07:22:31;;;;;;;27.55;3.60;;;;;;;;;;5070926;28;20012;-71
2022/02/07 07:24:57;;;;;;;23.42;3.83;;;;;;;;;;5071696;28;20384;-70
2022/02/07 07:27:26;;;;;;;28.73;3.25;;;;;;;;;;5071080;28;20078;-70
2022/02/07 07:29:51;;;;;;;18.08;3.20;;;;;;;;;;5069237;28;20017;-70
2022/02/07 07:32:22;;;;;;;27.45;4.03;;;;;;;;;;5067057;28;20017;-70
2022/02/07 07:34:47;;;;;;;;;;;;;;;;;;5069177;28;20374;-70
2022/02/07 07:37:12;;;;;;;24.70;3.10;;;;;;;;;;5069575;28;20332;-69
2022/02/07 07:39:37;;;;;;;24.70;2.78;;;;;;;;;;5067145;28;20032;-70
2022/02/07 07:42:03;;;;;;;18.13;2.65;;;;;;;;;;5069722;28;20357;-69
2022/02/07 07:44:33;;;;;;;29.55;4.82;;;;;;;;;;5069772;28;20099;-68
2022/02/07 07:47:06;;;;;;;29.23;4.07;;;;;;;;;;5073646;28;20024;-68
2022/02/07 07:49:36;;;;;;;25.10;2.65;;;;;;;;;;5073794;28;20028;-69
2022/02/07 07:52:12;;;;;;;18.75;2.13;;;;;;;;;;5073073;28;20017;-69
2022/02/07 07:55:12;;;;;;;26.35;3.72;;;;;;;;;;5073831;28;20031;-69
2022/02/07 08:02:54;;;;;;;20.02;3.22;;;;;;;;;;5067132;28;20035;-69
2022/02/07 08:05:42;;;;;;;27.67;3.08;;;;;;;;;;5071197;28;20052;-69
2022/02/07 08:09:12;;;;;;;22.73;2.70;;;;;;;;;;5068779;28;20461;-69
2022/02/07 08:11:08;;;;;;;33.95;5.20;;;;;;;;;;5058147;28;20500;-69
2022/02/07 08:13:34;;;;;;;25.52;4.65;;;;;;;;;;5071524;28;20092;-69
2022/02/07 08:15:59;;;;;;;31.70;5.13;;;;;;;;;;5072211;28;20099;-69
2022/02/07 08:18:25;;;;;;;37.47;5.28;;;;;;;;;;5072653;28;20013;-69
2022/02/07 08:20:50;;;;;;;17.63;2.55;;;;;;;;;;5072661;28;20469;-69
2022/02/07 08:23:15;;;;;;;29.92;3.40;;;;;;;;;;5072625;28;20073;-70
2022/02/07 08:25:40;;;;;;;27.35;4.88;;;;;;;;;;5072697;28;20028;-69
2022/02/07 08:28:06;;;;;;;17.20;3.38;;;;;;;;;;5071683;28;20033;-69
2022/02/07 08:30:31;;;;;;;19.42;2.70;;;;;;;;;;5066702;28;20058;-69
2022/02/07 08:32:58;;;;;;;22.20;3.65;;;;;;;;;;5070484;28;20040;-70
2022/02/07 08:35:24;;;;;;;30.83;3.78;;;;;;;;;;5071501;28;20029;-70
2022/02/07 08:37:49;;;;;;;28.85;3.47;;;;;;;;;;5072313;28;20036;-69
2022/02/07 08:40:15;;;;;;;21.58;3.90;;;;;;;;;;5071996;28;20031;-70
2022/02/07 08:42:40;;;;;;;26.85;4.25;;;;;;;;;;5071764;28;20517;-69
2022/02/07 08:45:05;;;;;;;26.02;4.35;;;;;;;;;;5071553;28;20393;-69
2022/02/07 08:47:30;;;;;;;28.42;4.82;;;;;;;;;;5072489;28;20055;-69
2022/02/07 08:49:55;;;;;;;27.52;3.80;;;;;;;;;;5065032;28;20029;-69
2022/02/07 08:52:21;;;;;;;47.03;7.10;;;;;;;;;;5070840;28;20020;-70
2022/02/07 08:54:47;;;;;;;30.60;3.50;;;;;;;;;;5071727;28;20735;-69
2022/02/07 08:57:25;;;;;;;26.30;4.40;;;;;;;;;;5070559;28;20071;-70
2022/02/07 08:59:58;;;;;;;30.42;4.25;;;;;;;;;;5071680;28;20021;-70
2022/02/07 09:07:36;;;;;;;27.00;3.25;;;;;;;;;;5071814;28;20032;-70
2022/02/07 09:10:01;;;;;;;31.60;4.68;;;;;;;;;;5071408;28;20059;-70
2022/02/07 09:12:26;;;;;;;25.38;3.38;;;;;;;;;;5063338;28;20032;-70
2022/02/07 09:14:59;;;;;;;21.20;3.33;;;;;;;;;;5066546;28;20044;-70
2022/02/07 09:17:24;;;;;;;26.27;3.00;;;;;;;;;;5070277;28;20508;-70
2022/02/07 09:19:49;;;;;;;22.77;3.88;;;;;;;;;;5070357;28;20021;-70
2022/02/07 09:22:15;;;;;;;28.20;3.85;;;;;;;;;;5071652;28;20086;-70
2022/02/07 09:24:40;;;;;;;16.05;4.10;;;;;;;;;;5071681;28;20047;-70
2022/02/07 09:27:05;;;;;;;26.15;4.18;;;;;;;;;;5070365;28;20127;-70
2022/02/07 09:29:31;;;;;;;37.28;4.03;;;;;;;;;;5072176;28;20025;-69
2022/02/07 09:31:57;;;;;;;25.25;4.03;;;;;;;;;;5070591;28;20044;-72
2022/02/07 09:34:23;;;;;;;31.33;3.67;;;;;;;;;;5069034;28;20025;-68
2022/02/07 09:36:52;;;;;;;30.48;4.10;;;;;;;;;;5058943;28;20012;-69
2022/02/07 09:39:18;;;;;;;27.77;3.67;;;;;;;;;;5072297;28;20107;-70
2022/02/07 09:41:43;;;;;;;30.88;5.13;;;;;;;;;;5070334;28;20111;-69
2022/02/07 09:44:09;;;;;;;23.52;3.45;;;;;;;;;;5071401;28;20021;-70
2022/02/07 09:46:55;;;;;;;19.73;3.42;;;;;;;;;;5070534;28;20063;-69
2022/02/07 09:49:22;;;;;;;35.67;6.53;;;;;;;;;;5071183;28;20036;-68
2022/02/07 09:51:48;;;;;;;14.20;3.55;;;;;;;;;;5071110;28;20008;-69
2022/02/07 09:54:18;;;;;;;26.05;3.70;;;;;;;;;;5072019;28;20050;-71
2022/02/07 09:56:45;;;;;;;38.67;5.65;;;;;;;;;;5071448;28;20023;-71
2022/02/07 09:59:10;;;;;;;25.95;3.78;;;;;;;;;;5071588;28;20542;-68
2022/02/07 10:01:38;;;;;;;38.13;4.28;;;;;;;;;;5071398;28;20095;-69
2022/02/07 10:04:13;;;;;;;21.80;3.67;;;;;;;;;;5068865;28;20083;-70
2022/02/07 10:06:53;;;;;;;31.40;4.07;;;;;;;;;;5042376;28;20476;-71
2022/02/07 10:14:39;;;;;;;37.85;3.83;;;;;;;;;;5070460;28;20024;-71
2022/02/07 10:44:30;;;;;;;32.08;4.80;;;;;;;;;;5058933;28;20173;-72
2022/02/07 10:46:56;;;;;;;42.22;4.47;;;;;;;;;;5069187;28;20024;-68
2022/02/07 10:49:21;;;;;;;33.13;4.47;;;;;;;;;;5070495;28;20352;-69
2022/02/07 10:51:46;;;;;;;29.75;3.80;;;;;;;;;;5069791;28;20075;-70
2022/02/07 10:54:12;;;;;;;43.72;5.10;;;;;;;;;;5070057;28;20021;-72
2022/02/07 10:56:42;;;;;;;36.38;4.00;;;;;;;;;;5069384;28;20013;-70
2022/02/07 10:59:09;;;;;;;29.27;6.60;;;;;;;;;;5069924;28;20025;-71
2022/02/07 11:02:03;;;;;;;28.85;4.43;;;;;;;;;;5062524;28;20025;-71
2022/02/07 11:04:31;;;;;;;25.50;4.97;;;;;;;;;;5061878;28;20040;-70
2022/02/07 11:07:02;;;;;;;34.08;5.65;;;;;;;;;;5069866;28;20786;-70
2022/02/07 11:09:41;;;;;;;29.88;5.05;;;;;;;;;;5069983;28;20376;-72
2022/02/07 11:12:17;;;;;;;34.60;4.15;;;;;;;;;;5069208;28;20048;-70
2022/02/07 11:14:51;;;;;;;33.83;5.28;;;;;;;;;;5070047;28;20111;-72
2022/02/07 11:19:57;;;;;;;33.05;4.07;;;;;;;;;;5069617;28;20070;-71
2022/02/07 11:22:49;;;;;;;38.78;6.70;;;;;;;;;;5073682;28;20024;-71
2022/02/07 11:25:30;;;;;;;32.42;4.30;;;;;;;;;;5073973;28;20025;-71
2022/02/07 11:27:58;;;;;;;24.13;4.05;;;;;;;;;;5074121;28;20614;-70
2022/02/07 11:30:42;;;;;;;18.50;3.72;;;;;;;;;;5073907;28;20021;-70
2022/02/07 11:33:27;;;;;;;35.58;6.60;;;;;;;;;;5063162;28;20019;-71
2022/02/07 11:35:53;;;;;;;19.15;3.67;;;;;;;;;;5072923;28;20020;-70
2022/02/07 11:38:18;;;;;;;37.57;4.90;;;;;;;;;;5073831;28;20070;-71
2022/02/07 11:40:56;;;;;;;32.72;4.18;;;;;;;;;;5072931;28;20358;-70
2022/02/07 11:43:23;;;;;;;31.63;4.93;;;;;;;;;;5073709;28;20032;-70
2022/02/07 11:45:57;;;;;;;32.20;4.45;;;;;;;;;;5072902;28;20028;-70
2022/02/07 11:48:37;;;;;;;27.60;4.85;;;;;;;;;;5073619;28;20082;-71
2022/02/07 11:51:10;;;;;;;21.55;3.35;;;;;;;;;;5072581;28;20020;-70
2022/02/07 11:53:46;;;;;;;25.77;4.00;;;;;;;;;;5073399;28;20056;-70
2022/02/07 11:56:24;;;;;;;34.92;5.07;;;;;;;;;;5072270;28;20102;-70
2022/02/07 11:59:00;;;;;;;23.33;3.17;;;;;;;;;;5072774;28;20017;-71
2022/02/07 12:01:46;;;;;;;29.10;3.58;;;;;;;;;;5072409;28;20473;-71
2022/02/07 12:04:11;;;;;;;21.90;4.63;;;;;;;;;;5054953;28;20047;-71
2022/02/07 12:06:36;;;;;;;36.73;4.97;;;;;;;;;;5073054;28;20024;-69
2022/02/07 12:09:03;;;;;;;17.33;3.85;;;;;;;;;;5073367;28;20290;-71
2022/02/07 12:11:42;;;;;;;32.50;5.18;;;;;;;;;;5072261;28;20063;-71
2022/02/07 12:14:26;;;;;;;27.65;4.97;;;;;;;;;;5056885;28;20012;-69
2022/02/07 12:16:52;;;;;;;22.73;4.80;;;;;;;;;;5073504;28;20013;-69
2022/02/07 12:19:17;;;;;;;23.65;4.28;;;;;;;;;;5072274;28;20464;-72
2022/02/07 12:21:51;;;;;;;18.93;2.57;;;;;;;;;;5072372;28;20032;-71
2022/02/07 12:24:17;;;;;;;20.83;4.40;;;;;;;;;;5073276;28;20271;-71
2022/02/07 12:26:45;;;;;;;31.45;4.32;;;;;;;;;;5072931;28;20455;-72
2022/02/07 12:29:24;;;;;;;17.30;3.72;;;;;;;;;;5073761;28;20103;-69
2022/02/07 12:31:49;;;;;;;17.35;2.60;;;;;;;;;;5072726;28;20012;-69
2022/02/07 12:34:15;;;;;;;13.88;2.33;;;;;;;;;;5074387;28;20027;-71
2022/02/07 12:36:41;;;;;;;19.40;3.38;;;;;;;;;;5072444;28;20019;-70
2022/02/07 12:39:07;;;;;;;14.32;3.10;;;;;;;;;;5071200;28;20085;-72
2022/02/07 12:41:33;;;;;;;22.15;4.95;;;;;;;;;;5072326;28;20505;-71
2022/02/07 12:43:59;;;;;;;22.85;4.18;;;;;;;;;;5072023;28;20045;-71
2022/02/07 12:46:26;;;;;;;23.05;4.38;;;;;;;;;;5073834;28;20435;-71
2022/02/07 12:49:01;;;;;;;22.25;3.40;;;;;;;;;;5049475;28;20031;-69
2022/02/07 12:51:31;;;;;;;19.70;4.05;;;;;;;;;;5054345;28;20534;-72
2022/02/07 12:53:57;;;;;;;13.57;3.63;;;;;;;;;;5072691;28;20408;-73
2022/02/07 12:56:23;;;;;;;28.95;4.28;;;;;;;;;;5073497;28;20051;-71
2022/02/07 12:58:49;;;;;;;10.73;4.53;;;;;;;;;;5072195;28;20031;-71
2022/02/07 13:01:25;;;;;;;21.08;3.95;;;;;;;;;;5070686;28;20113;-71
2022/02/07 13:03:55;;;;;;;12.77;5.47;;;;;;;;;;5072481;28;20021;-70
2022/02/07 13:06:24;;;;;;;22.95;4.20;;;;;;;;;;5072077;28;20023;-70
2022/02/07 13:08:50;;;;;;;18.65;4.15;;;;;;;;;;5071911;28;20056;-70
2022/02/07 13:11:26;;;;;;;27.33;4.82;;;;;;;;;;5072791;28;20110;-70
2022/02/07 13:13:52;;;;;;;26.52;5.38;;;;;;;;;;5073341;28;20027;-74
2022/02/07 13:16:17;;;;;;;22.85;5.07;;;;;;;;;;5070643;28;20024;-72
2022/02/07 13:18:43;;;;;;;24.33;5.53;;;;;;;;;;5071634;28;20123;-71
2022/02/07 13:21:12;;;;;;;15.33;3.63;;;;;;;;;;5072797;28;20044;-70
2022/02/07 13:23:39;;;;;;;19.40;3.03;;;;;;;;;;5072288;28;20302;-73
2022/02/07 13:26:07;;;;;;;21.20;4.63;;;;;;;;;;5070783;28;20029;-74
2022/02/07 13:28:33;;;;;;;24.75;3.72;;;;;;;;;;5071900;28;20013;-72
2022/02/07 13:30:59;;;;;;;23.35;4.78;;;;;;;;;;5062883;28;20075;-72
2022/02/07 13:33:25;;;;;;;20.10;3.40;;;;;;;;;;5072927;28;20481;-71
2022/02/07 13:35:54;;;;;;;17.30;3.47;;;;;;;;;;5071642;28;20025;-75
2022/02/07 13:38:21;;;;;;;26.23;3.63;;;;;;;;;;5071452;28;20107;-72
2022/02/07 13:40:47;;;;;;;18.58;3.42;;;;;;;;;;5070402;28;20044;-71
2022/02/07 13:43:26;;;;;;;10.70;2.75;;;;;;;;;;5061256;28;20123;-73
2022/02/07 13:45:52;;;;;;;26.02;3.20;;;;;;;;;;5070054;28;20027;-73
2022/02/07 13:48:18;;;;;;;15.30;2.17;;;;;;;;;;5071749;28;20059;-74
2022/02/07 13:50:45;;;;;;;17.48;2.78;;;;;;;;;;5071328;28;20016;-74
2022/02/07 13:53:13;;;;;;;10.00;2.63;;;;;;;;;;5070649;28;20035;-72
2022/02/07 13:55:39;;;;;;;19.05;2.97;;;;;;;;;;5070801;28;20019;-72
2022/02/07 13:58:04;;;;;;;14.93;2.95;;;;;;;;;;5071152;28;20407;-72
2022/02/07 14:00:33;;;;;;;23.63;2.87;;;;;;;;;;5070827;28;20021;-71
2022/02/07 14:03:02;;;;;;;17.15;3.33;;;;;;;;;;5070924;28;20615;-71
2022/02/07 14:05:35;;;;;;;23.67;3.35;;;;;;;;;;5071687;28;20020;-70
2022/02/07 14:08:02;;;;;;;22.35;4.22;;;;;;;;;;5070428;28;20028;-69
2022/02/07 14:10:33;;;;;;;17.83;2.80;;;;;;;;;;5070450;28;20013;-70
2022/02/07 14:12:58;;;;;;;25.65;2.88;;;;;;;;;;5070521;28;20500;-71
2022/02/07 14:15:24;;;;;;;33.00;4.05;;;;;;;;;;5073318;28;20115;-69
2022/02/07 14:17:49;;;;;;;13.23;3.38;;;;;;;;;;5070594;28;20052;-71
2022/02/07 14:20:19;;;;;;;17.67;3.73;;;;;;;;;;5070426;28;20032;-69
2022/02/07 14:22:44;;;;;;;14.30;2.78;;;;;;;;;;5070452;28;20324;-68
2022/02/07 14:25:10;;;;;;;20.98;3.80;;;;;;;;;;5070684;28;20032;-68
2022/02/07 14:27:36;;;;;;;17.15;3.60;;;;;;;;;;5070545;28;20631;-68
2022/02/07 14:30:01;;;;;;;18.20;3.08;;;;;;;;;;5069945;28;20111;-71
2022/02/07 14:32:26;;;;;;;20.52;3.22;;;;;;;;;;5069657;28;20020;-69
2022/02/07 14:34:51;;;;;;;16.73;2.53;;;;;;;;;;5069235;28;20035;-69
2022/02/07 14:37:18;;;;;;;13.93;3.25;;;;;;;;;;5069894;28;20740;-70
2022/02/07 14:39:43;;;;;;;25.60;2.60;;;;;;;;;;5070254;28;20023;-68
2022/02/07 14:42:09;;;;;;;25.95;3.85;;;;;;;;;;5070055;28;20024;-71
2022/02/07 14:44:43;;;;;;;29.40;4.40;;;;;;;;;;5070267;28;20063;-71
2022/02/07 14:47:14;;;;;;;19.75;2.58;;;;;;;;;;5070751;28;20020;-69
2022/02/07 14:49:39;;;;;;;18.73;2.40;;;;;;;;;;5070217;28;20047;-67
2022/02/07 14:52:05;;;;;;;20.83;4.07;;;;;;;;;;5070228;28;20465;-71
2022/02/07 14:54:32;;;;;;;21.70;3.58;;;;;;;;;;5068503;28;20013;-72
2022/02/07 14:56:57;;;;;;;18.00;2.22;;;;;;;;;;5069725;28;20020;-72
2022/02/07 14:59:23;;;;;;;16.80;2.45;;;;;;;;;;5070125;28;20031;-70
2022/02/07 15:01:52;;;;;;;17.55;3.72;;;;;;;;;;5069669;28;20025;-72
2022/02/07 15:04:17;;;;;;;12.13;2.72;;;;;;;;;;5069799;28;20108;-72
2022/02/07 15:06:42;;;;;;;10.90;2.00;;;;;;;;;;5070083;28;20597;-69
2022/02/07 15:09:08;;;;;;;15.05;3.78;;;;;;;;;;5069889;28;20392;-71
2022/02/07 15:11:33;;;;;;;12.50;2.28;;;;;;;;;;5069364;28;20488;-69
2022/02/07 15:13:58;;;;;;;21.25;3.15;;;;;;;;;;5069984;28;20066;-69
2022/02/07 15:16:23;;;;;;;18.83;3.27;;;;;;;;;;5070121;28;20034;-68
2022/02/07 15:18:49;;;;;;;16.50;2.47;;;;;;;;;;5069824;28;20718;-70
2022/02/07 15:21:14;;;;;;;18.00;3.28;;;;;;;;;;5050607;28;20266;-70
2022/02/07 15:23:41;;;;;;;13.40;2.85;;;;;;;;;;5069907;28;20473;-69
2022/02/07 15:26:06;;;;;;;14.65;2.78;;;;;;;;;;5068752;28;20104;-71
2022/02/07 15:28:31;;;;;;;19.30;2.83;;;;;;;;;;5068109;28;20104;-74
2022/02/07 15:30:57;;;;;;;12.93;2.30;;;;;;;;;;5067955;28;20043;-73
2022/02/07 15:33:30;;;;;;;19.10;4.80;;;;;;;;;;5067708;28;20266;-72
2022/02/07 15:35:55;;;;;;;13.48;3.22;;;;;;;;;;5068203;28;20020;-74
2022/02/07 15:38:23;;;;;;;15.23;3.42;;;;;;;;;;5069222;28;20373;-72
2022/02/07 15:40:49;;;;;;;18.15;3.45;;;;;;;;;;5069882;28;20027;-74
2022/02/07 15:43:14;;;;;;;13.70;3.40;;;;;;;;;;5068709;28;20032;-74
2022/02/07 15:45:40;;;;;;;13.48;2.38;;;;;;;;;;5068758;28;20017;-74
2022/02/07 15:48:05;;;;;;;18.83;2.45;;;;;;;;;;5069063;28;20032;-73
2022/02/07 15:50:31;;;;;;;22.52;3.38;;;;;;;;;;5069412;28;20025;-72
2022/02/07 15:52:59;;;;;;;18.90;3.03;;;;;;;;;;5069138;28;20122;-73
2022/02/07 15:55:27;;;;;;;11.40;2.90;;;;;;;;;;5069169;28;20026;-74
2022/02/07 15:57:52;;;;;;;8.10;2.08;;;;;;;;;;5069406;28;20487;-74
2022/02/07 16:00:17;;;;;;;21.75;2.45;;;;;;;;;;5068678;28;20028;-72
2022/02/07 16:02:48;;;;;;;18.67;3.03;;;;;;;;;;5052278;28;20020;-74
2022/02/07 16:05:15;;;;;;;23.58;4.05;;;;;;;;;;5068751;28;20127;-72
2022/02/07 16:07:40;;;;;;;12.55;3.58;;;;;;;;;;5072126;28;20051;-73
2022/02/07 16:10:06;;;;;;;18.83;3.40;;;;;;;;;;5072500;28;20060;-71
2022/02/07 16:12:31;;;;;;;19.42;3.15;;;;;;;;;;5072819;28;20033;-71
2022/02/07 16:14:56;;;;;;;11.13;2.53;;;;;;;;;;5072402;28;20070;-70
2022/02/07 16:17:21;;;;;;;17.30;2.37;;;;;;;;;;5073213;28;20025;-71
2022/02/07 16:19:47;;;;;;;15.90;2.90;;;;;;;;;;5072433;28;20265;-71
2022/02/07 16:22:12;;;;;;;35.85;3.78;;;;;;;;;;5072111;28;20267;-72
2022/02/07 16:24:43;;;;;;;20.92;2.85;;;;;;;;;;5070414;28;20043;-74
2022/02/07 16:27:09;;;;;;;17.30;2.22;;;;;;;;;;5072445;28;20059;-74
2022/02/07 16:29:34;;;;;;;16.73;2.72;;;;;;;;;;5072410;28;20064;-74
2022/02/07 16:31:59;;;;;;;17.67;3.22;;;;;;;;;;5073911;28;20070;-71
2022/02/07 16:34:24;;;;;;;14.93;2.65;;;;;;;;;;5072480;28;20028;-70
2022/02/07 16:36:50;;;;;;;18.73;2.72;;;;;;;;;;5073163;28;20066;-72
2022/02/07 16:39:16;;;;;;;15.93;3.17;;;;;;;;;;5072528;28;20031;-72
2022/02/07 16:41:42;;;;;;;19.00;3.45;;;;;;;;;;5071849;28;20504;-72
2022/02/07 16:44:09;;;;;;;16.90;3.60;;;;;;;;;;5071885;28;20054;-72
2022/02/07 16:46:52;;;;;;;28.80;3.00;;;;;;;;;;5072490;28;20424;-72
2022/02/07 16:49:35;;;;;;;14.50;2.95;;;;;;;;;;5072412;28;20512;-72